Time;durP1;ratioP1;P1;durP2;ratioP2;P2;SDS_P1;SDS_P2;PMS_P1;PMS_P2;Temp;Humidity;BMP_temperature;BMP_pressure;BME280_temperature;BME280_humidity;BME280_pressure;Samples;Min_cycle;Max_cycle;Signal;HPM_P1;HPM_P2
2024/02/13 00:01:40;;;;;;;3.78;1.50;;;7.50;99.90;;;;;;5052021;28;20025;-78
2024/02/13 00:04:10;;;;;;;5.93;1.65;;;7.40;99.90;;;;;;5051400;28;20060;-79
2024/02/13 00:06:41;;;;;;;4.75;1.48;;;7.40;99.90;;;;;;5051939;28;20029;-79
2024/02/13 00:09:07;;;;;;;4.07;1.30;;;7.40;99.90;;;;;;5051588;28;20037;-79
2024/02/13 00:11:32;;;;;;;6.10;1.70;;;7.30;99.90;;;;;;5053152;28;20055;-79
2024/02/13 00:13:58;;;;;;;5.13;1.83;;;7.30;99.90;;;;;;5052713;28;20025;-77
2024/02/13 00:16:25;;;;;;;5.03;1.48;;;7.30;99.90;;;;;;5053320;28;20052;-79
2024/02/13 00:18:51;;;;;;;4.68;1.50;;;7.20;99.90;;;;;;5053157;28;20028;-79
2024/02/13 00:21:17;;;;;;;5.15;1.60;;;7.20;99.90;;;;;;5051597;28;20025;-79
2024/02/13 00:23:42;;;;;;;6.82;1.88;;;7.20;99.90;;;;;;5052263;28;20389;-79
2024/02/13 00:26:09;;;;;;;8.13;1.75;;;7.10;99.90;;;;;;5051230;28;20028;-79
2024/02/13 00:28:37;;;;;;;5.38;1.85;;;7.10;99.90;;;;;;5051959;28;20430;-79
2024/02/13 00:31:05;;;;;;;5.22;1.90;;;7.10;99.90;;;;;;5052330;28;20032;-78
2024/02/13 00:33:31;;;;;;;5.15;1.92;;;7.00;99.90;;;;;;5053009;28;20417;-78
2024/02/13 00:35:57;;;;;;;6.38;1.90;;;7.10;99.90;;;;;;5051354;28;20124;-77
2024/02/13 00:38:24;;;;;;;7.05;2.00;;;7.00;99.90;;;;;;5052599;28;20453;-78
2024/02/13 00:40:49;;;;;;;7.65;1.98;;;7.00;99.90;;;;;;5051528;28;20347;-79
2024/02/13 00:43:19;;;;;;;4.30;1.70;;;6.90;99.90;;;;;;5050523;28;20045;-79
2024/02/13 00:45:46;;;;;;;5.57;1.90;;;6.90;99.90;;;;;;5051580;28;20124;-79
2024/02/13 00:48:12;;;;;;;8.43;1.90;;;6.90;99.90;;;;;;5050892;28;20077;-78
2024/02/13 00:50:38;;;;;;;10.15;1.65;;;6.90;99.90;;;;;;5051022;28;20029;-79
2024/02/13 00:53:05;;;;;;;5.82;1.58;;;6.90;99.90;;;;;;5050908;28;20063;-78
2024/02/13 00:55:31;;;;;;;9.73;2.35;;;6.80;99.90;;;;;;5056446;28;20024;-79
2024/02/13 00:57:57;;;;;;;7.70;1.92;;;6.80;99.90;;;;;;5056427;28;20025;-79
2024/02/13 01:00:24;;;;;;;6.35;1.73;;;6.80;99.90;;;;;;5054615;28;20074;-78
2024/02/13 01:02:50;;;;;;;7.53;2.03;;;6.80;99.90;;;;;;5056112;28;20028;-80
2024/02/13 01:05:16;;;;;;;6.97;2.15;;;6.80;99.90;;;;;;5054643;28;20025;-79
2024/02/13 01:07:42;;;;;;;8.23;2.22;;;6.80;99.90;;;;;;5055316;28;20088;-79
2024/02/13 01:10:09;;;;;;;5.13;1.55;;;6.80;99.90;;;;;;5054232;28;20033;-78
2024/02/13 01:12:35;;;;;;;5.85;1.75;;;6.90;99.90;;;;;;5054712;28;20059;-79
2024/02/13 01:15:01;;;;;;;9.25;1.88;;;6.90;99.90;;;;;;5055476;28;20037;-77
2024/02/13 01:17:28;;;;;;;3.35;1.63;;;6.90;99.90;;;;;;5054171;28;20025;-78
2024/02/13 01:19:54;;;;;;;5.47;1.58;;;6.90;99.90;;;;;;5054990;28;20087;-80
2024/02/13 01:22:20;;;;;;;4.82;1.40;;;6.90;99.90;;;;;;5054398;28;20032;-80
2024/02/13 01:24:45;;;;;;;3.72;1.60;;;6.90;99.90;;;;;;5054910;28;20029;-80
2024/02/13 01:27:11;;;;;;;8.85;1.80;;;7.00;99.90;;;;;;5055296;28;20095;-79
2024/02/13 01:29:37;;;;;;;6.03;1.50;;;6.90;99.90;;;;;;5055556;28;20037;-79
2024/02/13 01:32:05;;;;;;;4.90;1.80;;;7.00;99.90;;;;;;5055064;28;20120;-77
2024/02/13 01:34:31;;;;;;;4.72;1.42;;;7.00;99.90;;;;;;5054371;28;20082;-78
2024/02/13 01:36:57;;;;;;;6.32;1.63;;;6.90;99.90;;;;;;5054435;28;20424;-78
2024/02/13 01:39:24;;;;;;;5.68;1.75;;;6.90;99.90;;;;;;5053401;28;20025;-79
2024/02/13 01:41:50;;;;;;;6.28;1.67;;;6.90;99.90;;;;;;5054938;28;20485;-78
2024/02/13 01:44:15;;;;;;;6.35;1.50;;;6.90;99.90;;;;;;5053614;28;20033;-78
2024/02/13 01:46:41;;;;;;;4.15;2.28;;;6.90;99.90;;;;;;5055216;28;20028;-78
2024/02/13 01:49:09;;;;;;;8.35;1.60;;;6.90;99.90;;;;;;5054786;28;20048;-78
2024/02/13 01:51:36;;;;;;;6.32;1.40;;;6.90;99.90;;;;;;5055104;28;20044;-78
2024/02/13 01:54:05;;;;;;;6.07;1.38;;;6.90;99.90;;;;;;5054882;28;20036;-76
2024/02/13 01:56:33;;;;;;;5.82;1.70;;;6.90;99.90;;;;;;5054986;28;20029;-78
2024/02/13 01:58:59;;;;;;;5.20;1.30;;;6.90;99.90;;;;;;5053957;28;20129;-79
2024/02/13 02:01:27;;;;;;;6.38;1.35;;;6.90;99.90;;;;;;5054337;28;20466;-78
2024/02/13 02:03:54;;;;;;;7.38;1.50;;;6.90;99.90;;;;;;5054699;28;20087;-78
2024/02/13 02:06:20;;;;;;;5.60;1.38;;;6.90;99.90;;;;;;5052905;28;20108;-78
2024/02/13 02:08:46;;;;;;;6.40;1.45;;;7.00;99.90;;;;;;5053524;28;20120;-79
2024/02/13 02:11:13;;;;;;;4.90;1.88;;;6.90;99.90;;;;;;5052533;28;20097;-78
2024/02/13 02:13:38;;;;;;;6.45;1.67;;;6.90;99.90;;;;;;5053782;28;20040;-79
2024/02/13 02:16:07;;;;;;;5.65;1.80;;;6.90;99.90;;;;;;5054373;28;20028;-77
2024/02/13 02:18:32;;;;;;;3.33;1.17;;;6.90;99.90;;;;;;5054584;28;20029;-79
2024/02/13 02:20:58;;;;;;;3.97;1.42;;;6.90;99.90;;;;;;5054695;28;20039;-78
2024/02/13 02:23:26;;;;;;;3.42;1.25;;;6.90;99.90;;;;;;5053878;28;20127;-79
2024/02/13 02:25:52;;;;;;;3.33;1.55;;;6.80;99.90;;;;;;5070462;28;20085;-79
2024/02/13 02:28:17;;;;;;;5.90;1.67;;;6.80;99.90;;;;;;5052860;28;20033;-79
2024/02/13 02:30:45;;;;;;;4.57;1.52;;;6.80;99.90;;;;;;5054546;28;20029;-79
2024/02/13 02:33:14;;;;;;;6.95;2.22;;;6.90;99.90;;;;;;5053147;28;20042;-78
2024/02/13 02:35:41;;;;;;;5.15;1.40;;;6.90;99.90;;;;;;5053507;28;20029;-79
2024/02/13 02:38:07;;;;;;;6.38;1.80;;;6.90;99.90;;;;;;5053849;28;20048;-76
2024/02/13 02:40:33;;;;;;;5.35;1.63;;;6.90;99.90;;;;;;5053602;28;20027;-78
2024/02/13 02:42:59;;;;;;;6.22;1.90;;;6.90;99.90;;;;;;5053022;28;20049;-78
2024/02/13 02:45:27;;;;;;;4.55;1.48;;;6.90;99.90;;;;;;5052509;28;20033;-78
2024/02/13 02:47:53;;;;;;;9.43;1.90;;;6.90;99.90;;;;;;5054258;28;20122;-78
2024/02/13 02:50:19;;;;;;;4.72;1.98;;;6.90;99.90;;;;;;5052331;28;20123;-78
2024/02/13 02:52:44;;;;;;;8.20;2.00;;;6.90;99.90;;;;;;5052809;28;20108;-78
2024/02/13 02:55:10;;;;;;;11.18;1.73;;;6.80;99.90;;;;;;5052349;28;20065;-78
2024/02/13 02:57:38;;;;;;;8.35;1.98;;;6.80;99.90;;;;;;5053939;28;20028;-79
2024/02/13 03:00:06;;;;;;;5.35;1.63;;;6.90;99.90;;;;;;5052629;28;20028;-79
2024/02/13 03:02:33;;;;;;;6.10;2.35;;;6.90;99.90;;;;;;5053795;28;20437;-78
2024/02/13 03:04:59;;;;;;;10.25;1.95;;;6.80;99.90;;;;;;5053523;28;20025;-79
2024/02/13 03:07:24;;;;;;;6.13;1.80;;;6.80;99.90;;;;;;5053261;28;20104;-78
2024/02/13 03:09:50;;;;;;;7.07;1.95;;;6.80;99.90;;;;;;5052807;28;20119;-79
2024/02/13 03:12:16;;;;;;;6.63;2.00;;;6.80;99.90;;;;;;5052206;28;20037;-78
2024/02/13 03:14:42;;;;;;;5.25;1.95;;;6.80;99.90;;;;;;5053623;28;20037;-79
2024/02/13 03:17:11;;;;;;;9.35;2.22;;;6.80;99.90;;;;;;5051272;28;20025;-77
2024/02/13 03:19:37;;;;;;;3.95;1.92;;;6.80;99.90;;;;;;5053745;28;20122;-78
2024/02/13 03:22:03;;;;;;;4.95;1.90;;;6.80;99.90;;;;;;5052541;28;20051;-78
2024/02/13 03:24:28;;;;;;;5.00;1.70;;;6.80;99.90;;;;;;5052865;28;20025;-79
2024/02/13 03:26:55;;;;;;;5.10;2.00;;;6.80;99.90;;;;;;5053680;28;20025;-79
2024/02/13 03:29:20;;;;;;;9.63;2.40;;;6.80;99.90;;;;;;5052829;28;20029;-78
2024/02/13 03:31:46;;;;;;;5.00;2.13;;;6.80;99.90;;;;;;5052397;28;20036;-78
2024/02/13 03:34:11;;;;;;;5.55;2.67;;;6.70;99.90;;;;;;5068485;28;20470;-77
2024/02/13 03:36:37;;;;;;;4.32;1.98;;;6.70;99.90;;;;;;5052584;28;20025;-78
2024/02/13 03:39:06;;;;;;;7.47;2.03;;;6.60;99.90;;;;;;5053408;28;20104;-78
2024/02/13 03:41:31;;;;;;;6.47;2.20;;;6.60;99.90;;;;;;5051229;28;20087;-78
2024/02/13 03:43:57;;;;;;;6.57;2.25;;;6.60;99.90;;;;;;5052840;28;20056;-78
2024/02/13 03:46:22;;;;;;;6.60;2.13;;;6.60;99.90;;;;;;5051686;28;20458;-78
2024/02/13 03:48:48;;;;;;;5.85;1.90;;;6.60;99.90;;;;;;5051964;28;20029;-78
2024/02/13 03:51:13;;;;;;;6.90;2.28;;;6.60;99.90;;;;;;5052557;28;20071;-78
2024/02/13 03:53:39;;;;;;;4.97;1.90;;;6.50;99.90;;;;;;5053256;28;20025;-79
2024/02/13 03:56:06;;;;;;;7.07;2.13;;;6.50;99.90;;;;;;5052061;28;20031;-79
2024/02/13 03:58:32;;;;;;;4.88;2.20;;;6.50;99.90;;;;;;5052515;28;20519;-78
2024/02/13 04:00:57;;;;;;;6.13;2.55;;;6.40;99.90;;;;;;5051556;28;20025;-78
2024/02/13 04:03:26;;;;;;;8.57;2.08;;;6.40;99.90;;;;;;5051317;28;20032;-78
2024/02/13 04:05:52;;;;;;;7.38;2.10;;;6.40;99.90;;;;;;5052216;28;20028;-79
2024/02/13 04:08:18;;;;;;;7.17;2.10;;;6.50;99.90;;;;;;5051577;28;20025;-79
2024/02/13 04:10:43;;;;;;;6.53;2.50;;;6.40;99.90;;;;;;5053106;28;20462;-79
2024/02/13 04:13:09;;;;;;;10.48;2.30;;;6.40;99.90;;;;;;5068632;28;20115;-78
2024/02/13 04:15:35;;;;;;;5.55;2.15;;;6.40;99.90;;;;;;5052546;28;20083;-78
2024/02/13 04:18:02;;;;;;;8.73;2.20;;;6.40;99.90;;;;;;5051806;28;20028;-78
2024/02/13 04:20:27;;;;;;;9.40;2.13;;;6.40;99.90;;;;;;5068032;28;20033;-78
2024/02/13 04:22:53;;;;;;;7.57;2.30;;;6.40;99.90;;;;;;5068732;28;20028;-78
2024/02/13 04:25:19;;;;;;;6.70;2.17;;;6.40;99.90;;;;;;5067918;28;20463;-78
2024/02/13 04:27:44;;;;;;;7.15;1.98;;;6.30;99.90;;;;;;5069835;28;20032;-78
2024/02/13 04:30:12;;;;;;;5.35;1.90;;;6.30;99.90;;;;;;5055789;28;20386;-78
2024/02/13 04:32:38;;;;;;;5.55;1.85;;;6.30;99.90;;;;;;5072086;28;20126;-78
2024/02/13 04:35:05;;;;;;;4.93;2.15;;;6.30;99.90;;;;;;5056715;28;20497;-78
2024/02/13 04:37:31;;;;;;;6.03;2.13;;;6.30;99.90;;;;;;5055933;28;20095;-78
2024/02/13 04:39:57;;;;;;;8.73;2.10;;;6.30;99.90;;;;;;5056803;28;20036;-79
2024/02/13 04:42:48;;;;;;;9.13;2.38;;;6.30;99.90;;;;;;5055917;28;20123;-78
2024/02/13 04:45:14;;;;;;;6.32;1.98;;;6.30;99.90;;;;;;5054077;28;20116;-76
2024/02/13 04:47:40;;;;;;;4.95;2.13;;;6.30;99.90;;;;;;5055432;28;20522;-78
2024/02/13 04:50:09;;;;;;;9.93;2.50;;;6.30;99.90;;;;;;5056557;28;20127;-79
2024/02/13 04:52:35;;;;;;;4.40;2.38;;;6.40;99.90;;;;;;5071454;28;20021;-79
2024/02/13 04:55:00;;;;;;;4.32;2.00;;;6.30;99.90;;;;;;5056725;28;20047;-79
2024/02/13 04:57:27;;;;;;;4.68;1.90;;;6.40;99.90;;;;;;5071390;28;20224;-79
2024/02/13 04:59:57;;;;;;;7.00;2.38;;;6.40;99.90;;;;;;5056612;28;20031;-79
2024/02/13 05:02:24;;;;;;;4.20;2.25;;;6.40;99.90;;;;;;5055159;28;20056;-78
2024/02/13 05:07:35;;;;;;;5.43;2.30;;;6.50;99.90;;;;;;5055910;28;20055;-80
2024/02/13 05:10:02;;;;;;;8.93;2.30;;;6.50;99.90;;;;;;5071864;28;20040;-79
2024/02/13 05:12:28;;;;;;;5.50;2.13;;;6.50;99.90;;;;;;5055413;28;20462;-78
2024/02/13 05:14:54;;;;;;;6.10;2.13;;;6.50;99.90;;;;;;5071587;28;20032;-79
2024/02/13 05:17:21;;;;;;;5.65;2.65;;;6.50;99.90;;;;;;5055551;28;20025;-78
2024/02/13 05:19:49;;;;;;;3.95;2.30;;;6.60;99.90;;;;;;5055059;28;20040;-79
2024/02/13 05:22:15;;;;;;;4.38;2.42;;;6.60;99.90;;;;;;5071451;28;20029;-77
2024/02/13 05:24:41;;;;;;;5.00;1.80;;;6.70;99.90;;;;;;5071445;28;20048;-78
2024/02/13 05:27:10;;;;;;;9.32;2.25;;;6.70;99.90;;;;;;5055963;28;20060;-78
2024/02/13 05:29:38;;;;;;;5.28;2.15;;;6.70;99.90;;;;;;5053919;28;20021;-79
2024/02/13 05:32:05;;;;;;;3.08;1.95;;;6.70;99.90;;;;;;5054035;28;20033;-78
2024/02/13 05:34:31;;;;;;;6.93;2.50;;;6.70;99.90;;;;;;5070211;28;20025;-78
2024/02/13 05:36:58;;;;;;;8.85;2.78;;;6.60;99.90;;;;;;5054574;28;20017;-80
2024/02/13 05:39:25;;;;;;;4.85;2.03;;;6.60;99.90;;;;;;5053749;28;20119;-80
2024/02/13 05:41:51;;;;;;;10.88;2.40;;;6.60;99.90;;;;;;5070904;28;20040;-79
2024/02/13 05:44:17;;;;;;;7.47;2.28;;;6.60;99.90;;;;;;5071040;28;20056;-78
2024/02/13 05:46:43;;;;;;;7.07;2.38;;;6.60;99.90;;;;;;5054451;28;20466;-80
2024/02/13 05:49:09;;;;;;;6.55;2.30;;;6.60;99.90;;;;;;5071188;28;20025;-79
2024/02/13 05:51:35;;;;;;;7.35;2.35;;;6.50;99.90;;;;;;5053816;28;20029;-78
2024/02/13 05:54:04;;;;;;;8.27;2.30;;;6.50;99.90;;;;;;5071133;28;20025;-80
2024/02/13 05:56:35;;;;;;;8.20;2.45;;;6.50;99.90;;;;;;5070655;28;20516;-79
2024/02/13 05:59:03;;;;;;;8.20;2.40;;;6.50;99.90;;;;;;5054167;28;20032;-78
2024/02/13 06:01:29;;;;;;;9.30;2.45;;;6.40;99.90;;;;;;5069880;28;20025;-78
2024/02/13 06:03:57;;;;;;;7.50;2.13;;;6.40;99.90;;;;;;5053603;28;20519;-79
2024/02/13 06:06:23;;;;;;;7.03;2.42;;;6.50;99.90;;;;;;5052743;28;20025;-77
2024/02/13 06:08:51;;;;;;;8.95;2.65;;;6.40;99.90;;;;;;5053786;28;20078;-78
2024/02/13 06:11:16;;;;;;;8.77;2.78;;;6.40;99.90;;;;;;5053557;28;20060;-77
2024/02/13 06:13:44;;;;;;;13.80;2.65;;;6.40;99.90;;;;;;5054385;28;20028;-79
2024/02/13 06:16:10;;;;;;;5.78;2.33;;;6.40;99.90;;;;;;5055018;28;20021;-79
2024/02/13 06:18:35;;;;;;;11.98;2.65;;;6.30;99.90;;;;;;5054371;28;20359;-79
2024/02/13 06:21:01;;;;;;;9.40;2.83;;;6.40;99.90;;;;;;5058845;28;20092;-78
2024/02/13 06:23:27;;;;;;;7.13;2.78;;;6.40;99.90;;;;;;5052023;28;20035;-80
2024/02/13 06:25:52;;;;;;;7.00;2.72;;;6.40;99.90;;;;;;5053961;28;20025;-80
2024/02/13 06:28:18;;;;;;;7.77;2.87;;;6.40;99.90;;;;;;5052336;28;20535;-76
2024/02/13 06:30:45;;;;;;;6.20;2.50;;;6.40;99.90;;;;;;5053386;28;20033;-78
2024/02/13 06:33:11;;;;;;;8.60;2.50;;;6.40;99.90;;;;;;5035645;28;20032;-78
2024/02/13 06:35:38;;;;;;;13.98;2.90;;;6.30;99.90;;;;;;5052009;28;20029;-78
2024/02/13 06:38:04;;;;;;;8.85;2.78;;;6.30;99.90;;;;;;5053035;28;20029;-78
2024/02/13 06:40:29;;;;;;;5.85;2.20;;;6.30;99.90;;;;;;5048756;28;20086;-79
2024/02/13 06:42:56;;;;;;;8.07;2.25;;;6.30;99.90;;;;;;5051874;28;20052;-79
2024/02/13 06:45:21;;;;;;;6.85;2.58;;;6.30;99.90;;;;;;5052747;28;20458;-76
2024/02/13 06:47:47;;;;;;;3.45;1.85;;;6.30;99.90;;;;;;5053641;28;20036;-77
2024/02/13 06:50:13;;;;;;;7.50;2.47;;;6.40;99.90;;;;;;5051869;28;20033;-78
2024/02/13 06:52:39;;;;;;;8.18;2.42;;;6.40;99.90;;;;;;5051450;28;20573;-79
2024/02/13 06:55:07;;;;;;;6.28;2.47;;;6.40;99.90;;;;;;5052033;28;20505;-78
2024/02/13 06:57:35;;;;;;;5.88;2.45;;;6.40;99.90;;;;;;5051261;28;20048;-78
2024/02/13 07:00:08;;;;;;;6.90;2.60;;;6.30;99.90;;;;;;5053004;28;20021;-78
2024/02/13 07:02:35;;;;;;;8.07;2.72;;;6.30;99.90;;;;;;5051408;28;20119;-78
2024/02/13 07:05:00;;;;;;;4.30;2.28;;;6.30;99.90;;;;;;5068966;28;20031;-79
2024/02/13 07:07:27;;;;;;;6.38;2.20;;;6.30;99.90;;;;;;5050729;28;20029;-78
2024/02/13 07:09:52;;;;;;;12.30;2.65;;;6.30;99.90;;;;;;5052801;28;20029;-78
2024/02/13 07:12:20;;;;;;;3.75;2.30;;;6.40;99.90;;;;;;5052581;28;20040;-75
2024/02/13 07:14:46;;;;;;;5.57;1.73;;;6.50;99.90;;;;;;5052841;28;20031;-79
2024/02/13 07:17:11;;;;;;;9.02;2.40;;;6.50;99.90;;;;;;5053082;28;20386;-78
2024/02/13 07:19:39;;;;;;;8.02;2.80;;;6.50;99.90;;;;;;5052033;28;20024;-78
2024/02/13 07:22:07;;;;;;;8.80;2.80;;;6.50;99.90;;;;;;5052603;28;20025;-78
2024/02/13 07:24:35;;;;;;;6.55;2.60;;;6.60;99.90;;;;;;5052075;28;20027;-78
2024/02/13 07:27:01;;;;;;;8.70;2.42;;;6.60;99.90;;;;;;5053594;28;20033;-78
2024/02/13 07:29:26;;;;;;;6.80;2.53;;;6.60;99.90;;;;;;5052915;28;20037;-78
2024/02/13 07:31:52;;;;;;;7.30;2.30;;;6.60;99.90;;;;;;5053552;28;20059;-78
2024/02/13 07:34:20;;;;;;;8.50;2.50;;;6.60;99.90;;;;;;5053074;28;20028;-78
2024/02/13 07:36:46;;;;;;;7.20;2.38;;;6.60;99.90;;;;;;5052650;28;20083;-77
2024/02/13 07:39:11;;;;;;;5.45;2.25;;;6.60;99.90;;;;;;5052543;28;20162;-78
2024/02/13 07:41:37;;;;;;;13.35;2.72;;;6.70;99.90;;;;;;5051660;28;20135;-77
2024/02/13 07:44:03;;;;;;;7.03;2.42;;;6.70;99.90;;;;;;5053594;28;20033;-78
2024/02/13 07:46:29;;;;;;;7.47;2.45;;;6.70;99.90;;;;;;5051875;28;20036;-77
2024/02/13 07:48:55;;;;;;;5.18;2.63;;;6.80;99.90;;;;;;5052182;28;20033;-78
2024/02/13 07:51:21;;;;;;;5.63;2.97;;;6.80;99.90;;;;;;5051548;28;20359;-75
2024/02/13 07:53:47;;;;;;;5.40;2.50;;;6.80;99.90;;;;;;5052041;28;20036;-78
2024/02/13 07:56:12;;;;;;;7.45;2.47;;;6.80;99.90;;;;;;5052154;28;20021;-78
2024/02/13 07:58:39;;;;;;;6.93;2.92;;;6.90;99.90;;;;;;5052705;28;20060;-78
2024/02/13 08:01:05;;;;;;;6.95;2.55;;;6.80;99.90;;;;;;5051939;28;20124;-78
2024/02/13 08:03:34;;;;;;;5.63;2.50;;;6.90;99.90;;;;;;5051251;28;20025;-78
2024/02/13 08:06:01;;;;;;;7.30;2.50;;;6.90;99.90;;;;;;5053219;28;20029;-78
2024/02/13 08:08:28;;;;;;;4.72;2.78;;;6.90;99.90;;;;;;5051460;28;20425;-78
2024/02/13 08:10:54;;;;;;;8.45;2.97;;;7.00;99.90;;;;;;5052329;28;20029;-78
2024/02/13 08:13:19;;;;;;;9.18;2.63;;;7.00;99.90;;;;;;5053486;28;20025;-78
2024/02/13 08:15:47;;;;;;;8.65;2.55;;;7.00;99.90;;;;;;5051149;28;20099;-76
2024/02/13 08:18:14;;;;;;;5.15;2.22;;;7.10;99.90;;;;;;5053057;28;20026;-78
2024/02/13 08:20:40;;;;;;;8.68;2.55;;;7.10;99.90;;;;;;5051503;28;20052;-78
2024/02/13 08:23:06;;;;;;;8.02;2.88;;;7.20;99.90;;;;;;5051920;28;20029;-78
2024/02/13 08:25:31;;;;;;;12.15;3.55;;;7.20;99.90;;;;;;5051322;28;20036;-79
2024/02/13 08:27:58;;;;;;;5.55;2.22;;;7.30;99.90;;;;;;5051891;28;20029;-78
2024/02/13 08:30:24;;;;;;;5.00;2.35;;;7.30;99.90;;;;;;5050953;28;20150;-77
2024/02/13 08:32:49;;;;;;;7.28;3.20;;;7.40;99.90;;;;;;5052135;28;20075;-78
2024/02/13 08:35:18;;;;;;;6.40;2.58;;;7.40;99.90;;;;;;5053139;28;20029;-78
2024/02/13 08:37:44;;;;;;;8.23;2.90;;;7.40;99.90;;;;;;5052510;28;20112;-78
2024/02/13 08:40:13;;;;;;;6.85;2.53;;;7.40;99.90;;;;;;5052895;28;20442;-78
2024/02/13 08:42:38;;;;;;;11.18;2.58;;;7.40;99.90;;;;;;5051033;28;20389;-78
2024/02/13 08:45:05;;;;;;;10.00;3.40;;;7.40;99.90;;;;;;5051896;28;20120;-78
2024/02/13 08:47:30;;;;;;;7.18;3.03;;;7.50;99.90;;;;;;5051280;28;20063;-77
2024/02/13 08:49:56;;;;;;;8.90;3.08;;;7.50;99.90;;;;;;5051766;28;20052;-78
2024/02/13 08:52:22;;;;;;;7.72;2.83;;;7.50;99.90;;;;;;5051666;28;20033;-81
2024/02/13 08:54:47;;;;;;;7.13;2.80;;;7.50;99.90;;;;;;5052209;28;20055;-78
2024/02/13 08:57:14;;;;;;;4.90;2.92;;;7.50;99.90;;;;;;5051329;28;20462;-80
2024/02/13 08:59:40;;;;;;;7.90;2.60;;;7.50;99.90;;;;;;5051344;28;20061;-81
2024/02/13 09:02:08;;;;;;;9.88;3.05;;;7.40;99.90;;;;;;5051806;28;20078;-80
2024/02/13 09:04:35;;;;;;;3.65;2.10;;;7.50;99.90;;;;;;5051160;28;20029;-80
2024/02/13 09:07:02;;;;;;;5.65;2.47;;;7.50;99.90;;;;;;5050782;28;20017;-80
2024/02/13 09:09:27;;;;;;;14.35;3.05;;;7.50;99.90;;;;;;5052364;28;20061;-79
2024/02/13 09:11:53;;;;;;;4.53;2.40;;;7.60;99.90;;;;;;5052706;28;20129;-80
2024/02/13 09:14:19;;;;;;;4.55;2.20;;;7.70;99.90;;;;;;5051789;28;20470;-80
2024/02/13 09:16:44;;;;;;;4.53;2.30;;;7.80;99.90;;;;;;5054438;28;20048;-80
2024/02/13 09:19:10;;;;;;;4.97;2.47;;;7.80;99.90;;;;;;5054829;28;20029;-79
2024/02/13 09:21:35;;;;;;;9.30;2.60;;;7.80;99.90;;;;;;5054027;28;20025;-80
2024/02/13 09:24:01;;;;;;;7.38;2.40;;;7.70;99.90;;;;;;5054777;28;20389;-80
2024/02/13 09:26:27;;;;;;;5.60;2.90;;;7.70;99.90;;;;;;5054682;28;20029;-79
2024/02/13 09:28:53;;;;;;;6.55;2.40;;;7.80;99.90;;;;;;5055391;28;20052;-80
2024/02/13 09:31:18;;;;;;;9.30;3.42;;;7.90;99.90;;;;;;5071180;28;20367;-80
2024/02/13 09:33:45;;;;;;;5.63;2.40;;;7.90;99.90;;;;;;5055240;28;20347;-79
2024/02/13 09:36:20;;;;;;;6.18;2.30;;;7.90;99.90;;;;;;5055754;28;20506;-80
2024/02/13 09:38:45;;;;;;;5.63;2.25;;;8.00;99.90;;;;;;5054922;28;20029;-80
2024/02/13 09:41:12;;;;;;;8.63;2.55;;;8.10;99.90;;;;;;5055547;28;20138;-80
2024/02/13 09:43:38;;;;;;;4.72;2.58;;;8.10;99.90;;;;;;5055315;28;20057;-79
2024/02/13 09:46:05;;;;;;;9.32;2.58;;;8.20;99.90;;;;;;5054857;28;20382;-80
2024/02/13 09:48:33;;;;;;;7.20;2.75;;;8.20;99.90;;;;;;5070264;28;20032;-79
2024/02/13 09:51:08;;;;;;;5.43;2.45;;;8.20;99.90;;;;;;5070884;28;20119;-80
2024/02/13 09:53:40;;;;;;;5.13;2.00;;;8.20;99.90;;;;;;5070462;28;20060;-80
2024/02/13 09:56:06;;;;;;;7.47;2.20;;;8.40;99.90;;;;;;5071111;28;20458;-79
2024/02/13 09:58:32;;;;;;;5.90;1.80;;;8.40;99.90;;;;;;5053348;28;20025;-79
2024/02/13 10:00:59;;;;;;;5.70;1.98;;;8.40;99.90;;;;;;5055379;28;20055;-80
2024/02/13 10:03:25;;;;;;;4.60;1.70;;;8.30;99.90;;;;;;5070438;28;20079;-80
2024/02/13 10:05:50;;;;;;;4.53;1.50;;;8.20;99.90;;;;;;5054129;28;20024;-80
2024/02/13 10:08:17;;;;;;;6.40;1.60;;;8.10;99.90;;;;;;5070590;28;20059;-80
2024/02/13 10:10:44;;;;;;;6.10;1.60;;;8.10;99.90;;;;;;5053037;28;20136;-79
2024/02/13 10:13:12;;;;;;;4.97;1.65;;;8.10;99.90;;;;;;5070146;28;20389;-80
2024/02/13 10:15:45;;;;;;;4.80;1.40;;;8.10;99.90;;;;;;5053077;28;20033;-79
2024/02/13 10:18:13;;;;;;;4.72;2.05;;;8.10;99.90;;;;;;5070506;28;20029;-79
2024/02/13 10:20:40;;;;;;;4.38;1.95;;;8.10;99.90;;;;;;5069790;28;20063;-79
2024/02/13 10:23:07;;;;;;;4.80;1.83;;;8.10;99.90;;;;;;5070336;28;20021;-80
2024/02/13 10:25:34;;;;;;;4.18;1.35;;;8.20;99.90;;;;;;5053710;28;20021;-79
2024/02/13 10:28:05;;;;;;;4.28;1.50;;;8.20;99.90;;;;;;5053126;28;20025;-79
2024/02/13 10:30:32;;;;;;;4.38;1.50;;;8.30;99.90;;;;;;5054070;28;20032;-79
2024/02/13 10:33:06;;;;;;;5.47;1.73;;;8.30;99.90;;;;;;5069959;28;20082;-79
2024/02/13 10:35:32;;;;;;;4.20;1.88;;;8.40;99.90;;;;;;5069373;28;20028;-78
2024/02/13 10:37:58;;;;;;;9.95;1.90;;;8.40;99.90;;;;;;5069720;28;20036;-80
2024/02/13 10:40:30;;;;;;;4.75;1.80;;;8.40;99.90;;;;;;5054386;28;20039;-79
2024/02/13 10:42:57;;;;;;;7.30;2.22;;;8.50;99.90;;;;;;5054015;28;20045;-80
2024/02/13 10:45:25;;;;;;;5.28;1.83;;;8.50;99.90;;;;;;5053135;28;20029;-80
2024/02/13 10:47:54;;;;;;;3.85;1.50;;;8.50;99.90;;;;;;5053765;28;20028;-80
2024/02/13 10:50:20;;;;;;;4.10;1.55;;;8.60;99.90;;;;;;5054263;28;20379;-80
2024/02/13 10:52:51;;;;;;;4.20;1.80;;;8.60;99.90;;;;;;5052734;28;20059;-81
2024/02/13 10:55:19;;;;;;;5.50;1.70;;;8.60;99.90;;;;;;5053538;28;20121;-81
2024/02/13 10:57:46;;;;;;;3.20;1.42;;;8.60;99.90;;;;;;5053283;28;20025;-80
2024/02/13 11:00:18;;;;;;;4.45;1.70;;;8.60;99.90;;;;;;5053035;28;20029;-80
2024/02/13 11:02:51;;;;;;;4.22;1.50;;;8.60;99.90;;;;;;5053571;28;20083;-80
2024/02/13 11:05:18;;;;;;;4.95;1.50;;;8.70;99.90;;;;;;5053161;28;20528;-80
2024/02/13 11:07:47;;;;;;;2.88;1.30;;;8.70;99.90;;;;;;5053504;28;20040;-80
2024/02/13 11:10:13;;;;;;;5.32;1.75;;;8.70;99.90;;;;;;5053926;28;20029;-80
2024/02/13 11:12:39;;;;;;;3.75;1.90;;;8.90;99.90;;;;;;5051922;28;20485;-80
2024/02/13 11:15:11;;;;;;;3.63;1.63;;;9.00;99.90;;;;;;5052879;28;20033;-80
2024/02/13 11:17:51;;;;;;;5.93;1.38;;;9.00;99.90;;;;;;5051811;28;20032;-79
2024/02/13 11:20:22;;;;;;;3.08;1.42;;;9.20;99.90;;;;;;5052587;28;20083;-79
2024/02/13 11:22:50;;;;;;;3.97;1.40;;;9.30;99.90;;;;;;5052837;28;20032;-78
2024/02/13 11:25:16;;;;;;;4.57;1.50;;;9.50;99.90;;;;;;5052200;28;20025;-78
2024/02/13 11:27:44;;;;;;;2.63;1.40;;;9.60;99.90;;;;;;5052679;28;20040;-78
2024/02/13 11:30:20;;;;;;;2.03;1.13;;;9.50;99.90;;;;;;5052418;28;20028;-79
2024/02/13 11:32:46;;;;;;;3.63;1.02;;;9.60;99.90;;;;;;5051582;28;20037;-79
2024/02/13 11:35:19;;;;;;;3.95;1.20;;;9.50;99.90;;;;;;5053152;28;20132;-79
2024/02/13 11:37:46;;;;;;;3.45;1.13;;;9.40;99.90;;;;;;5050777;28;20029;-78
2024/02/13 11:40:12;;;;;;;8.00;1.50;;;9.50;99.90;;;;;;5053024;28;20082;-79
2024/02/13 11:42:38;;;;;;;1.98;1.20;;;9.60;99.90;;;;;;5051052;28;20045;-79
2024/02/13 11:45:08;;;;;;;2.00;1.35;;;9.60;99.90;;;;;;5052086;28;20120;-80
2024/02/13 11:47:34;;;;;;;1.63;1.17;;;9.60;99.90;;;;;;5051981;28;20351;-80
2024/02/13 11:50:00;;;;;;;3.00;1.20;;;9.50;99.90;;;;;;5052157;28;20545;-80
2024/02/13 11:52:26;;;;;;;6.13;1.45;;;9.40;99.90;;;;;;5051834;28;20039;-79
2024/02/13 11:54:52;;;;;;;2.28;1.23;;;9.40;99.90;;;;;;5051432;28;20112;-79
2024/02/13 11:57:19;;;;;;;2.05;1.00;;;9.50;99.90;;;;;;5052001;28;20024;-80
2024/02/13 11:59:59;;;;;;;6.13;1.20;;;9.50;99.90;;;;;;5052504;28;20489;-79
2024/02/13 12:02:27;;;;;;;3.85;1.17;;;9.60;99.90;;;;;;5051863;28;20464;-80
2024/02/13 12:04:52;;;;;;;2.72;0.95;;;9.60;99.90;;;;;;5051117;28;20070;-80
2024/02/13 12:07:18;;;;;;;3.00;1.15;;;9.70;99.90;;;;;;5053026;28;20025;-80
2024/02/13 12:09:48;;;;;;;4.43;1.30;;;9.70;99.90;;;;;;5052268;28;20025;-79
2024/02/13 12:12:14;;;;;;;1.48;1.08;;;9.80;99.90;;;;;;5051787;28;20044;-80
2024/02/13 12:14:43;;;;;;;2.38;0.90;;;9.90;99.90;;;;;;5052485;28;20036;-80
2024/02/13 12:17:11;;;;;;;3.92;0.93;;;10.00;99.90;;;;;;5052233;28;20021;-80
2024/02/13 12:19:41;;;;;;;2.28;0.90;;;10.10;99.90;;;;;;5051130;28;20029;-79
2024/02/13 12:22:11;;;;;;;3.47;0.90;;;10.30;99.90;;;;;;5051810;28;20547;-80
2024/02/13 12:24:40;;;;;;;3.83;0.90;;;10.40;99.90;;;;;;5051706;28;20032;-78
2024/02/13 12:27:10;;;;;;;2.08;0.90;;;10.50;99.90;;;;;;5052798;28;20082;-80
2024/02/13 12:29:38;;;;;;;3.65;1.50;;;10.60;99.90;;;;;;5051443;28;20025;-78
2024/02/13 12:32:20;;;;;;;2.33;1.38;;;10.70;99.90;;;;;;5052907;28;20417;-78
2024/02/13 12:34:47;;;;;;;1.90;1.00;;;10.90;99.90;;;;;;5051129;28;20032;-78
2024/02/13 12:37:20;;;;;;;2.20;0.82;;;11.10;99.90;;;;;;5052855;28;20025;-78
2024/02/13 12:39:47;;;;;;;3.95;0.93;;;11.20;99.90;;;;;;5050751;28;20128;-79
2024/02/13 12:42:13;;;;;;;3.40;0.90;;;11.30;99.90;;;;;;5052789;28;20370;-79
2024/02/13 12:44:40;;;;;;;5.80;1.15;;;11.50;99.90;;;;;;5051212;28;20098;-77
2024/02/13 12:47:07;;;;;;;2.13;0.80;;;11.50;99.90;;;;;;5051612;28;20024;-78
2024/02/13 12:49:34;;;;;;;1.77;0.80;;;11.60;99.90;;;;;;5053930;28;20036;-79
2024/02/13 12:52:00;;;;;;;4.72;0.90;;;11.80;99.90;;;;;;5056402;28;20108;-79
2024/02/13 12:54:25;;;;;;;4.65;0.90;;;12.00;99.90;;;;;;5055658;28;20060;-79
2024/02/13 12:56:52;;;;;;;2.38;0.80;;;12.00;99.90;;;;;;5056086;28;20354;-79